Terminal Aerodrome Forecast
Issued by NWS

Home | Current Version | Previous Version | Text Only | Print | Product List | Glossary On
Versions: 1 2 3 4 5 6 7 8 9 10 11 12 13 14
257
FTUS43 KEAX 082320
TAFMKC
TAF
KMKC 082320Z 0900/0924 29005KT P6SM SKC
     FM091800 18005KT P6SM BKN100=

USA.gov is the U.S. government's official web portal to all federal, state and local government web resources and services.